Terminal Aerodrome Forecast
Issued by NWS

Home | Current Version | Previous Version | Text Only | Print | Product List | Glossary On
Versions: 1 2 3 4 5 6 7 8 9 10 11 12 13 14
000
FTUS43 KGRB 021630 AAA
TAFCWA
TAF AMD
KCWA 021630Z 0217/0312 23012G20KT P6SM BKN035 BKN100
      TEMPO 0217/0218 BKN020
     FM022000 30011G18KT P6SM SCT035 BKN070
     FM030100 32007KT P6SM SCT050=

USA.gov is the U.S. government's official web portal to all federal, state and local government web resources and services.